LOWILIPX

Guest
Details From LOWI - Innsbruck Kranebitten
To LIPX - VILLAFRANCA
Flight Number -
Tags generated
Created
Modified
Stats Distance 113 nm / 210 km
Max Altitude 6,200 ft / 1,890 m
Waypoints 3
Social Downloads 2
Likes 0
Share VATSIM

Download

Looking for another format? Having issues loading an existing format? Contact us
Advertisement - Login to hide

Notes

Basic altitude profile: - Ascent Rate: 2500ft/min - Ascent Speed: 250kts - Cruise Altitude: 35000ft - Cruise Speed: 420kts - Descent Rate: 1500ft/min - Descent Speed: 250kts Options: - Use NATs: no - Use PACOTS: no - Use low airways: no - Use high airways: yes

Route

LOWI MATAR LIPX

ID Type Via Altitude Latitude Longitude Leg Dist Tot Dist Heading (true) Name
O LOWI APT - 0 ft / 0 m 47.26023˚ 11.34397˚ - 0 nm - Innsbruck Kranebitten
MATAR FIX - 6,200 ft / 1,890 m 46.97500˚ 11.25333˚ 17 nm 17 nm 192° / 192° -
O LIPX APT - 0 ft / 0 m 45.39694˚ 10.89042˚ 95 nm 113 nm 189° / 189° VILLAFRANCA

Altitude Profile

Advertisement - Login to hide

LOWI

Details ICAO LOWI (INN)
Name Innsbruck Kranebitten
Region Austria
Timezone Europe/Vienna (UTC+1.0)
Stats Elevation 1,906 ft / 581 m (AMSL)
Location 47.260226° 11.343967°
Runways 1
Magnetic Variation 3.018° E

METAR

LOWI 130120Z AUTO VRB02KT 9000 FEW008 SCT013 BKN034 00/M00 Q1018

Decode

TAF

TAF LOWI 122315Z 1300/1324 VRB02KT 6000 SCT005 BKN020 TX02/1313Z TNM02/1307Z TEMPO 1300/1303 3000 -SN BR VV005 TEMPO 1303/1310 BKN005 BECMG 1309/1311 09005KT 9999 FEW010 SCT050 BECMG 1317/1319 27010KT 9999 SCT040 BKN100

Decode

Departure Runways

ID Width Length Bearing (true) Bearing (mag) Surface Threshold Offset Overrun Length
08 148 ft / 45 m 6,545 ft / 1,995 m 81.02° 78.00° Asphalt 338 ft / 103 m 0 ft / 0 m
26 148 ft / 45 m 6,545 ft / 1,995 m 261.04° 258.02° Asphalt 0 ft / 0 m 0 ft / 0 m

LIPX

Details ICAO LIPX (VRN)
Name VILLAFRANCA
Region Italy
Timezone Europe/Rome (UTC+1.0)
Stats Elevation 239 ft / 73 m (AMSL)
Location 45.396942° 10.890418°
Runways 1
Magnetic Variation 2.860° E

METAR

LIPX 130120Z 18005KT 150V210 6000 SCT060 01/01 Q1015

Decode

TAF

Not found

Destination Runways

ID Width Length Bearing (true) Bearing (mag) Surface Threshold Offset Overrun Length
04 148 ft / 45 m 10,072 ft / 3,070 m 45.79° 42.93° Asphalt 189 ft / 58 m 815 ft / 248 m
22 148 ft / 45 m 10,072 ft / 3,070 m 225.81° 222.95° Asphalt 1,345 ft / 410 m 189 ft / 58 m

Approach Navaids

Runway Type Ident Frequency Range Bearing (true) Bearing (mag) Slope Elevation
04 Localiser IVF 110.10 MHz 18 nm / 33 km 45.76° 42.90° - 248 ft / 76 m (AMSL)
04 Glidescope IVF 110.10 MHz 10 nm / 19 km 45.80° 42.94° 3.00° 272 ft / 83 m (AMSL)
04 DME IVF 110.10 MHz 18 nm / 33 km - - - 248 ft / 76 m (AMSL)

Popular Alternatives